Time;durP1;ratioP1;P1;durP2;ratioP2;P2;SDS_P1;SDS_P2;PMS_P1;PMS_P2;Temp;Humidity;BMP_temperature;BMP_pressure;BME280_temperature;BME280_humidity;BME280_pressure;Samples;Min_cycle;Max_cycle;Signal;HPM_P1;HPM_P2
2022/11/06 00:00:40;;;;;;;23.77;21.25;;;5.30;99.90;;;;;;6092541;23;20215;-74
2022/11/06 00:03:07;;;;;;;21.33;19.02;;;5.20;99.90;;;;;;6092337;23;20267;-73
2022/11/06 00:08:34;;;;;;;22.75;20.35;;;5.20;99.90;;;;;;6091562;23;20321;-74
2022/11/06 00:11:02;;;;;;;22.73;19.40;;;5.10;99.90;;;;;;6092634;23;20220;-74
2022/11/06 00:13:29;;;;;;;22.58;20.13;;;5.10;99.90;;;;;;6092560;23;20263;-74
2022/11/06 00:15:56;;;;;;;26.60;23.05;;;5.10;99.90;;;;;;6092474;23;20192;-74
2022/11/06 00:18:26;;;;;;;24.00;21.50;;;5.10;99.90;;;;;;6092703;23;20188;-74
2022/11/06 00:20:53;;;;;;;22.00;19.80;;;5.10;99.90;;;;;;6092598;23;20223;-74
2022/11/06 00:23:20;;;;;;;27.52;23.50;;;5.10;99.90;;;;;;6092423;23;20192;-74
2022/11/06 00:25:51;;;;;;;25.52;22.73;;;5.10;99.90;;;;;;6092821;23;20238;-74
2022/11/06 00:28:19;;;;;;;23.17;20.77;;;5.10;99.90;;;;;;6092445;23;20249;-75
2022/11/06 00:30:47;;;;;;;23.83;20.75;;;5.20;99.90;;;;;;6091133;23;20192;-74
2022/11/06 00:33:14;;;;;;;21.85;19.45;;;5.10;99.90;;;;;;6091998;23;20693;-74
2022/11/06 00:35:41;;;;;;;24.60;21.17;;;5.10;99.90;;;;;;6092506;23;20208;-74
2022/11/06 00:38:08;;;;;;;22.40;20.05;;;5.10;99.90;;;;;;6092404;23;20223;-74
2022/11/06 00:40:35;;;;;;;20.42;18.38;;;5.10;99.90;;;;;;6090324;23;20196;-74
2022/11/06 00:43:04;;;;;;;21.63;19.58;;;5.00;99.90;;;;;;6092167;23;20646;-74
2022/11/06 00:45:31;;;;;;;21.42;19.10;;;5.00;99.90;;;;;;6090927;23;20272;-74
2022/11/06 00:47:58;;;;;;;21.20;19.05;;;5.00;99.90;;;;;;6092287;23;20226;-74
2022/11/06 00:50:26;;;;;;;21.08;18.60;;;5.00;99.90;;;;;;6092148;23;20654;-75
2022/11/06 00:52:54;;;;;;;20.08;17.63;;;5.00;99.90;;;;;;6090697;23;20549;-74
2022/11/06 00:55:21;;;;;;;27.00;22.70;;;5.00;99.90;;;;;;6090635;23;20646;-74
2022/11/06 00:57:48;;;;;;;21.75;18.95;;;5.00;99.90;;;;;;6092479;23;20548;-74
2022/11/06 01:00:19;;;;;;;21.45;19.10;;;5.00;99.90;;;;;;6090854;23;20658;-74
2022/11/06 01:02:47;;;;;;;23.35;20.00;;;5.00;99.90;;;;;;6092488;23;20188;-75
2022/11/06 01:05:14;;;;;;;23.33;20.30;;;5.00;99.90;;;;;;6092335;23;20275;-74
2022/11/06 01:07:41;;;;;;;20.60;18.15;;;5.00;99.90;;;;;;6090683;23;20195;-74
2022/11/06 01:10:09;;;;;;;25.27;21.17;;;5.00;99.90;;;;;;6091966;23;20725;-74
2022/11/06 01:12:36;;;;;;;22.35;19.98;;;5.00;99.90;;;;;;6090663;23;20188;-74
2022/11/06 01:15:04;;;;;;;20.75;18.65;;;5.00;99.90;;;;;;6092509;23;20262;-74
2022/11/06 01:17:34;;;;;;;21.83;18.45;;;5.00;99.90;;;;;;6092328;23;20200;-74
2022/11/06 01:20:01;;;;;;;20.95;18.75;;;5.00;99.90;;;;;;6092301;23;20242;-74
2022/11/06 01:22:28;;;;;;;20.00;17.80;;;5.00;99.90;;;;;;6092226;23;20188;-74
2022/11/06 01:24:55;;;;;;;21.23;18.90;;;5.00;99.90;;;;;;6092050;23;20192;-74
2022/11/06 01:27:23;;;;;;;20.90;18.70;;;5.00;99.90;;;;;;6092293;23;20223;-74
2022/11/06 01:29:50;;;;;;;20.77;18.67;;;5.00;99.90;;;;;;6092142;23;20685;-74
2022/11/06 01:32:17;;;;;;;22.25;19.75;;;4.90;99.90;;;;;;6091723;23;20188;-74
2022/11/06 01:34:46;;;;;;;21.13;19.00;;;4.90;99.90;;;;;;6091941;23;20682;-74
2022/11/06 01:37:13;;;;;;;26.27;20.15;;;4.90;99.90;;;;;;6091998;23;20194;-74
2022/11/06 01:39:40;;;;;;;20.08;18.17;;;4.90;99.90;;;;;;6090608;23;20275;-75
2022/11/06 01:42:10;;;;;;;23.08;18.60;;;4.90;99.90;;;;;;6092299;23;20188;-74
2022/11/06 01:45:14;;;;;;;20.52;18.42;;;4.90;99.90;;;;;;6092509;23;20242;-74
2022/11/06 01:47:42;;;;;;;20.52;18.30;;;4.80;99.90;;;;;;6092014;23;20661;-75
2022/11/06 01:50:12;;;;;;;20.25;18.10;;;4.80;99.90;;;;;;6090285;23;20227;-74
2022/11/06 01:52:40;;;;;;;22.73;20.27;;;4.70;99.90;;;;;;6090415;23;20192;-74
2022/11/06 01:55:12;;;;;;;21.13;19.02;;;4.70;99.90;;;;;;6090562;23;20247;-74
2022/11/06 01:57:40;;;;;;;22.00;19.40;;;4.70;99.90;;;;;;6067143;23;20219;-74
2022/11/06 02:00:08;;;;;;;20.15;17.85;;;4.60;99.90;;;;;;6091977;23;20227;-74
2022/11/06 02:02:36;;;;;;;21.10;17.80;;;4.60;99.90;;;;;;6090488;23;20188;-74
2022/11/06 02:05:04;;;;;;;22.98;20.48;;;4.50;99.90;;;;;;6091716;23;20641;-74
2022/11/06 02:07:33;;;;;;;21.17;18.90;;;4.50;99.90;;;;;;6090183;23;20259;-74
2022/11/06 02:10:00;;;;;;;21.35;19.25;;;4.50;99.90;;;;;;6091638;23;20192;-74
2022/11/06 02:12:39;;;;;;;20.92;18.73;;;4.40;99.90;;;;;;6091943;23;20199;-74
2022/11/06 02:15:14;;;;;;;22.85;19.75;;;4.40;99.90;;;;;;6092296;23;20219;-74
2022/11/06 02:17:53;;;;;;;22.00;19.30;;;4.30;99.90;;;;;;6092134;23;20246;-74
2022/11/06 02:20:28;;;;;;;19.60;17.50;;;4.30;99.90;;;;;;6091894;23;20192;-74
2022/11/06 02:23:28;;;;;;;21.80;19.45;;;4.20;99.90;;;;;;6091819;23;20187;-74
2022/11/06 02:26:07;;;;;;;21.80;19.50;;;4.10;99.90;;;;;;6091451;23;20339;-74
2022/11/06 02:28:41;;;;;;;19.00;16.55;;;4.10;99.90;;;;;;6091777;23;20249;-74
2022/11/06 02:31:13;;;;;;;22.30;18.13;;;4.00;99.90;;;;;;6091879;23;20267;-75
2022/11/06 02:33:47;;;;;;;20.90;17.30;;;3.90;99.90;;;;;;6090729;23;20208;-74
2022/11/06 02:36:18;;;;;;;19.27;17.30;;;3.90;99.90;;;;;;6092971;23;20223;-74
2022/11/06 02:38:50;;;;;;;22.67;19.63;;;3.90;99.90;;;;;;6092682;23;20188;-74
2022/11/06 02:41:22;;;;;;;23.60;18.77;;;3.80;99.90;;;;;;6067949;23;20267;-74
2022/11/06 02:43:55;;;;;;;30.15;19.17;;;3.70;99.90;;;;;;6092793;23;20188;-74
2022/11/06 02:46:27;;;;;;;27.10;17.85;;;3.70;99.90;;;;;;6092716;23;20641;-75
2022/11/06 02:48:59;;;;;;;18.65;15.80;;;3.70;99.90;;;;;;6092292;23;20196;-74
2022/11/06 02:51:30;;;;;;;21.45;18.30;;;3.60;99.90;;;;;;6093106;23;20537;-74
2022/11/06 02:54:01;;;;;;;21.33;18.40;;;3.50;99.90;;;;;;6092708;23;20210;-74
2022/11/06 02:56:35;;;;;;;21.55;19.27;;;3.50;99.90;;;;;;6092659;23;20660;-74
2022/11/06 02:59:07;;;;;;;22.15;19.77;;;3.50;99.90;;;;;;6067907;23;20218;-74
2022/11/06 03:01:39;;;;;;;76.13;23.42;;;3.50;99.90;;;;;;6092868;23;20239;-74
2022/11/06 03:04:15;;;;;;;79.45;21.70;;;3.50;99.90;;;;;;6092779;23;20187;-74
2022/11/06 03:06:48;;;;;;;83.50;23.80;;;3.50;99.90;;;;;;6091224;23;20193;-74
2022/11/06 03:09:20;;;;;;;106.75;22.48;;;3.50;99.90;;;;;;6092491;23;20246;-74
2022/11/06 03:11:52;;;;;;;109.60;24.23;;;3.40;99.90;;;;;;6092645;23;20192;-74
2022/11/06 03:14:29;;;;;;;187.98;27.42;;;3.30;99.90;;;;;;6092758;23;20286;-74
2022/11/06 03:17:00;;;;;;;86.90;20.20;;;3.30;99.90;;;;;;6092783;23;20213;-74
2022/11/06 03:19:31;;;;;;;66.78;20.15;;;3.20;99.90;;;;;;6090657;23;20599;-74
2022/11/06 03:22:03;;;;;;;191.43;26.67;;;3.20;99.90;;;;;;6067884;23;20727;-74
2022/11/06 03:24:40;;;;;;;143.98;23.17;;;3.20;99.90;;;;;;6091956;23;20740;-74
2022/11/06 03:27:10;;;;;;;87.70;19.67;;;3.10;99.90;;;;;;6092639;23;20714;-74
2022/11/06 03:29:42;;;;;;;78.97;19.60;;;3.10;99.90;;;;;;6093154;23;20188;-74
2022/11/06 03:32:17;;;;;;;44.78;17.13;;;2.90;99.90;;;;;;6093024;23;20285;-74
2022/11/06 03:34:52;;;;;;;109.43;19.98;;;2.90;99.90;;;;;;6092664;23;20220;-74
2022/11/06 03:37:26;;;;;;;38.40;17.65;;;2.80;99.90;;;;;;6092622;23;20678;-74
2022/11/06 03:39:57;;;;;;;94.68;23.08;;;2.80;99.90;;;;;;6090267;23;20227;-74
2022/11/06 03:42:29;;;;;;;26.33;15.95;;;2.80;99.90;;;;;;6091889;23;20225;-75
2022/11/06 03:45:02;;;;;;;28.52;14.65;;;2.80;99.90;;;;;;6092414;23;20525;-74
2022/11/06 03:47:33;;;;;;;27.90;15.02;;;2.80;99.90;;;;;;6090871;23;20645;-74
2022/11/06 03:50:05;;;;;;;40.13;16.20;;;2.80;99.90;;;;;;6092444;23;20276;-74
2022/11/06 03:52:35;;;;;;;75.53;18.65;;;2.70;99.90;;;;;;6092498;23;20194;-74
2022/11/06 03:55:07;;;;;;;115.72;21.67;;;2.60;99.90;;;;;;6092743;23;20210;-74
2022/11/06 03:57:40;;;;;;;154.38;25.38;;;2.60;99.90;;;;;;6092663;23;20188;-74
2022/11/06 04:00:10;;;;;;;316.98;35.15;;;2.50;99.90;;;;;;6092417;23;20193;-74
2022/11/06 04:02:41;;;;;;;256.35;31.23;;;2.50;99.90;;;;;;6092583;23;20213;-73
2022/11/06 04:05:12;;;;;;;123.53;23.77;;;2.50;99.90;;;;;;6090765;23;20208;-74
2022/11/06 04:13:55;;;;;;;104.72;24.17;;;2.50;99.90;;;;;;6092391;23;20537;-75
2022/11/06 04:16:09;;;;;;;84.25;22.45;;;2.50;99.90;;;;;;6090815;23;20721;-74
2022/11/06 04:18:36;;;;;;;92.93;22.88;;;2.50;99.90;;;;;;6092586;23;20200;-74
2022/11/06 04:21:24;;;;;;;51.30;18.23;;;2.50;99.90;;;;;;6090404;23;20188;-74
2022/11/06 04:27:03;;;;;;;103.63;24.98;;;2.60;99.90;;;;;;6092660;23;20188;-74
2022/11/06 04:29:43;;;;;;;95.75;24.38;;;2.60;99.90;;;;;;6090597;23;20219;-74
2022/11/06 04:32:18;;;;;;;55.03;19.15;;;2.60;99.90;;;;;;6092609;23;20201;-74
2022/11/06 04:34:48;;;;;;;58.05;20.10;;;2.60;99.90;;;;;;6092648;23;20221;-74
2022/11/06 04:37:21;;;;;;;34.72;18.15;;;2.60;99.90;;;;;;6093059;23;20187;-74
2022/11/06 04:40:00;;;;;;;63.90;21.02;;;2.50;99.90;;;;;;6092236;23;20717;-74
2022/11/06 04:42:36;;;;;;;208.63;30.23;;;2.60;99.90;;;;;;6092672;23;20194;-74
2022/11/06 04:45:07;;;;;;;79.07;22.55;;;2.50;99.90;;;;;;6092059;23;20248;-73
2022/11/06 04:47:38;;;;;;;55.10;19.38;;;2.50;99.90;;;;;;6092457;23;20487;-74
2022/11/06 04:50:09;;;;;;;78.00;21.02;;;2.50;99.90;;;;;;6091738;23;20623;-74
2022/11/06 04:52:38;;;;;;;89.53;20.38;;;2.50;99.90;;;;;;6090881;23;20194;-73
2022/11/06 04:55:06;;;;;;;104.35;22.20;;;2.50;99.90;;;;;;6091933;23;20271;-74
2022/11/06 04:57:33;;;;;;;95.93;23.85;;;2.50;99.90;;;;;;6092429;23;20197;-74
2022/11/06 05:00:00;;;;;;;55.22;18.98;;;2.50;99.90;;;;;;6092396;23;20224;-74
2022/11/06 05:02:27;;;;;;;128.25;25.77;;;2.50;99.90;;;;;;6092321;23;20224;-73
2022/11/06 05:04:56;;;;;;;87.75;21.27;;;2.50;99.90;;;;;;6092771;23;20283;-73
2022/11/06 05:07:23;;;;;;;92.97;20.88;;;2.50;99.90;;;;;;6090524;23;20232;-74
2022/11/06 05:09:50;;;;;;;92.18;24.23;;;2.50;99.90;;;;;;6090860;23;20199;-73
2022/11/06 05:12:17;;;;;;;65.18;19.08;;;2.60;99.90;;;;;;6092397;23;20551;-74
2022/11/06 05:14:44;;;;;;;101.68;23.42;;;2.60;99.90;;;;;;6092076;23;20190;-74
2022/11/06 05:17:11;;;;;;;57.17;18.55;;;2.60;99.90;;;;;;6092302;23;20227;-74
2022/11/06 05:19:38;;;;;;;150.63;26.05;;;2.60;99.90;;;;;;6092181;23;20188;-74
2022/11/06 05:24:52;;;;;;;114.03;25.52;;;2.70;99.90;;;;;;6092258;23;20296;-74
2022/11/06 05:27:19;;;;;;;174.63;32.15;;;2.70;99.90;;;;;;6092260;23;20194;-74
2022/11/06 05:29:46;;;;;;;75.88;23.27;;;2.80;99.90;;;;;;6090395;23;20259;-74
2022/11/06 05:32:14;;;;;;;136.98;23.75;;;2.80;99.90;;;;;;6092220;23;20225;-74
2022/11/06 05:34:41;;;;;;;34.70;20.50;;;2.80;99.90;;;;;;6090759;23;20216;-73
2022/11/06 05:37:10;;;;;;;37.35;19.58;;;2.80;99.90;;;;;;6092355;23;20225;-74
2022/11/06 05:39:37;;;;;;;127.53;24.55;;;2.90;99.90;;;;;;6092227;23;20218;-74
2022/11/06 05:42:04;;;;;;;172.05;26.67;;;2.90;99.90;;;;;;6092107;23;20270;-74
2022/11/06 05:44:31;;;;;;;61.83;22.13;;;2.90;99.90;;;;;;6092013;23;20253;-74
2022/11/06 05:46:58;;;;;;;124.78;25.55;;;2.90;99.90;;;;;;6090646;23;20277;-74
2022/11/06 05:49:26;;;;;;;64.88;19.88;;;2.90;99.90;;;;;;6090159;23;20205;-74
2022/11/06 05:51:53;;;;;;;45.83;19.60;;;3.00;99.90;;;;;;6092188;23;20311;-74
2022/11/06 05:54:21;;;;;;;86.55;21.17;;;2.90;99.90;;;;;;6090297;23;20216;-74
2022/11/06 05:56:48;;;;;;;91.68;21.27;;;2.90;99.90;;;;;;6092406;23;20300;-73
2022/11/06 05:59:16;;;;;;;139.45;23.85;;;2.90;99.90;;;;;;6092059;23;20381;-74
2022/11/06 06:01:43;;;;;;;20.02;16.65;;;2.90;99.90;;;;;;6091637;23;20238;-73
2022/11/06 06:04:10;;;;;;;142.52;22.27;;;2.80;99.90;;;;;;6091824;23;20283;-73
2022/11/06 06:06:38;;;;;;;126.35;22.92;;;2.80;99.90;;;;;;6091377;23;20212;-74
2022/11/06 06:09:05;;;;;;;113.97;21.15;;;2.80;99.90;;;;;;6090456;23;20630;-74
2022/11/06 06:11:33;;;;;;;89.32;19.75;;;2.70;99.90;;;;;;6091985;23;20284;-74
2022/11/06 06:14:01;;;;;;;74.90;17.77;;;2.60;99.90;;;;;;6091883;23;20763;-74
2022/11/06 06:16:28;;;;;;;78.90;19.40;;;2.60;99.90;;;;;;6091999;23;20590;-74
2022/11/06 06:18:55;;;;;;;56.80;18.50;;;2.50;99.90;;;;;;6090842;23;20588;-74
2022/11/06 06:21:22;;;;;;;46.25;17.05;;;2.50;99.90;;;;;;6091874;23;20228;-74
2022/11/06 06:23:49;;;;;;;47.95;18.75;;;2.50;99.90;;;;;;6092113;23;20276;-74
2022/11/06 06:26:17;;;;;;;52.08;18.08;;;2.50;99.90;;;;;;6089949;23;20235;-75
2022/11/06 06:28:48;;;;;;;49.10;19.17;;;2.50;99.90;;;;;;6091833;23;20280;-74
2022/11/06 06:31:15;;;;;;;75.25;19.58;;;2.50;99.90;;;;;;6091395;23;20195;-74
2022/11/06 06:33:42;;;;;;;54.55;16.52;;;2.40;99.90;;;;;;6091768;23;20224;-74
2022/11/06 06:36:10;;;;;;;61.65;20.65;;;2.40;99.90;;;;;;6091556;23;20193;-74
2022/11/06 06:38:37;;;;;;;172.25;28.52;;;2.40;99.90;;;;;;6091716;23;20657;-74
2022/11/06 06:41:06;;;;;;;97.53;21.70;;;2.30;99.90;;;;;;6090461;23;20190;-74
2022/11/06 06:43:34;;;;;;;57.03;20.70;;;2.40;99.90;;;;;;6091683;23;20271;-74
2022/11/06 06:46:04;;;;;;;90.80;20.38;;;2.30;99.90;;;;;;6091860;23;20236;-74
2022/11/06 06:48:31;;;;;;;148.43;26.60;;;2.40;99.90;;;;;;6091677;23;20260;-74
2022/11/06 06:51:00;;;;;;;49.95;19.50;;;2.40;99.90;;;;;;6091878;23;20272;-74
2022/11/06 06:53:27;;;;;;;109.82;22.50;;;2.40;99.90;;;;;;6091385;23;20582;-74
2022/11/06 06:55:55;;;;;;;119.43;23.17;;;2.40;99.90;;;;;;6090236;23;20690;-74
2022/11/06 06:58:22;;;;;;;87.07;21.20;;;2.40;99.90;;;;;;6091422;23;20201;-74
2022/11/06 07:00:50;;;;;;;85.82;22.58;;;2.40;99.90;;;;;;6089854;23;20672;-74
2022/11/06 07:03:18;;;;;;;103.97;24.40;;;2.30;99.90;;;;;;6091442;23;20208;-74
2022/11/06 07:05:46;;;;;;;80.97;21.77;;;2.40;99.90;;;;;;6090863;23;20295;-74
2022/11/06 07:08:14;;;;;;;107.53;25.08;;;2.40;99.90;;;;;;6089938;23;20194;-74
2022/11/06 07:10:41;;;;;;;97.60;21.95;;;2.40;99.90;;;;;;6091387;23;20194;-74
2022/11/06 07:13:08;;;;;;;106.85;24.42;;;2.50;99.90;;;;;;6091656;23;20275;-74
2022/11/06 07:15:35;;;;;;;79.68;21.50;;;2.40;99.90;;;;;;6065683;23;20193;-74
2022/11/06 07:18:02;;;;;;;73.50;20.63;;;2.30;99.90;;;;;;6091476;23;20742;-74
2022/11/06 07:20:32;;;;;;;81.20;23.45;;;2.40;99.90;;;;;;6090802;23;20552;-75
2022/11/06 07:23:04;;;;;;;105.72;23.58;;;2.50;99.90;;;;;;6093174;23;20200;-74
2022/11/06 07:25:32;;;;;;;118.43;23.80;;;2.50;99.90;;;;;;6093246;23;20289;-73
2022/11/06 07:28:01;;;;;;;74.78;18.83;;;2.50;99.90;;;;;;6092578;23;20190;-74
2022/11/06 07:30:28;;;;;;;60.88;18.48;;;2.40;99.90;;;;;;6067432;23;20313;-74
2022/11/06 07:32:55;;;;;;;151.80;24.30;;;2.40;99.90;;;;;;6092579;23;20760;-74
2022/11/06 07:35:22;;;;;;;73.82;18.95;;;2.40;99.90;;;;;;6092718;23;20223;-74
2022/11/06 07:37:51;;;;;;;84.60;18.08;;;2.40;99.90;;;;;;6092812;23;20188;-74
2022/11/06 07:40:18;;;;;;;110.30;18.25;;;2.40;99.90;;;;;;6090756;23;20240;-74
2022/11/06 07:42:45;;;;;;;125.30;21.35;;;2.50;99.90;;;;;;6092659;23;20558;-74
2022/11/06 07:45:12;;;;;;;66.20;17.98;;;2.50;99.90;;;;;;6093056;23;20291;-74
2022/11/06 07:47:40;;;;;;;162.90;23.77;;;2.50;99.90;;;;;;6092731;23;20238;-74
2022/11/06 07:50:07;;;;;;;99.78;18.85;;;2.60;99.90;;;;;;6092407;23;20561;-74
2022/11/06 07:52:34;;;;;;;102.68;18.40;;;2.60;99.90;;;;;;6092914;23;20240;-74
2022/11/06 07:55:04;;;;;;;145.88;21.92;;;2.60;99.90;;;;;;6092889;23;20282;-74
2022/11/06 07:57:34;;;;;;;141.57;22.13;;;2.70;99.90;;;;;;6092767;23;20209;-73
2022/11/06 08:00:03;;;;;;;80.13;17.27;;;2.80;99.90;;;;;;6092731;23;20219;-74
2022/11/06 08:02:30;;;;;;;41.13;15.23;;;2.80;99.90;;;;;;6092633;23;20202;-74
2022/11/06 08:04:57;;;;;;;54.75;16.98;;;3.00;99.90;;;;;;6092529;23;20208;-74
2022/11/06 08:07:25;;;;;;;114.57;23.67;;;3.10;99.90;;;;;;6091226;23;20192;-73
2022/11/06 08:09:52;;;;;;;87.68;19.13;;;3.20;99.90;;;;;;6092313;23;20195;-74
2022/11/06 08:12:20;;;;;;;46.83;20.02;;;3.20;99.90;;;;;;6092616;23;20211;-74
2022/11/06 08:14:47;;;;;;;56.50;21.75;;;3.40;99.90;;;;;;6090470;23;20199;-74
2022/11/06 08:17:15;;;;;;;60.63;20.27;;;3.60;99.90;;;;;;6092305;23;20188;-74
2022/11/06 08:19:42;;;;;;;39.05;17.42;;;3.80;99.90;;;;;;6091187;23;20275;-74
2022/11/06 08:22:09;;;;;;;27.92;16.83;;;3.90;99.90;;;;;;6092471;23;20683;-74
2022/11/06 08:24:36;;;;;;;18.08;16.17;;;4.00;99.90;;;;;;6092293;23;20306;-74
2022/11/06 08:27:03;;;;;;;15.88;14.18;;;4.30;99.90;;;;;;6090741;23;20689;-75
2022/11/06 08:29:32;;;;;;;15.18;13.57;;;4.80;99.90;;;;;;6092011;23;20188;-75
2022/11/06 08:31:59;;;;;;;11.45;10.35;;;5.20;99.90;;;;;;6091078;23;20199;-75
2022/11/06 08:34:26;;;;;;;12.00;10.90;;;5.80;99.90;;;;;;6092800;23;20224;-74
2022/11/06 08:36:53;;;;;;;9.10;8.23;;;6.30;99.90;;;;;;6092618;23;20244;-74
2022/11/06 08:39:20;;;;;;;11.00;10.02;;;6.50;99.90;;;;;;6092608;23;20196;-75
2022/11/06 08:41:48;;;;;;;8.68;7.88;;;6.70;99.90;;;;;;6090978;23;20277;-74
2022/11/06 08:44:16;;;;;;;8.45;7.75;;;6.80;99.90;;;;;;6092332;23;20208;-74
2022/11/06 08:46:45;;;;;;;8.10;7.30;;;7.00;99.90;;;;;;6092614;23;20692;-74
2022/11/06 08:49:12;;;;;;;9.00;8.20;;;7.10;99.90;;;;;;6092443;23;20251;-74
2022/11/06 08:51:39;;;;;;;7.72;7.03;;;7.30;99.90;;;;;;6092510;23;20193;-74
2022/11/06 08:54:06;;;;;;;8.20;7.40;;;7.60;99.90;;;;;;6092781;23;20737;-74
2022/11/06 08:56:33;;;;;;;8.40;7.70;;;7.90;99.90;;;;;;6090947;23;20580;-75
2022/11/06 08:59:00;;;;;;;8.82;7.97;;;8.30;99.90;;;;;;6092346;23;20286;-74
2022/11/06 09:01:27;;;;;;;8.25;7.45;;;8.70;99.90;;;;;;6090505;23;20195;-75
2022/11/06 09:03:56;;;;;;;7.60;7.00;;;9.20;99.90;;;;;;6092552;23;20196;-74
2022/11/06 09:06:25;;;;;;;7.38;6.68;;;9.50;99.90;;;;;;6092358;23;20718;-75
2022/11/06 09:08:52;;;;;;;7.80;7.20;;;9.70;99.90;;;;;;6092189;23;20260;-75
2022/11/06 09:11:19;;;;;;;6.97;6.43;;;9.80;99.90;;;;;;6092392;23;20202;-74
2022/11/06 09:13:46;;;;;;;7.57;6.88;;;9.80;99.90;;;;;;6090914;23;20223;-74
2022/11/06 09:16:13;;;;;;;7.63;6.93;;;10.00;99.90;;;;;;6092564;23;20188;-74
2022/11/06 09:18:40;;;;;;;8.50;7.80;;;10.30;99.90;;;;;;6092766;23;20631;-74
2022/11/06 09:21:09;;;;;;;7.07;6.57;;;10.40;99.90;;;;;;6091839;23;20271;-74
2022/11/06 09:23:36;;;;;;;7.50;6.90;;;10.80;99.90;;;;;;6092433;23;20267;-75
2022/11/06 09:26:04;;;;;;;7.30;6.70;;;11.20;99.90;;;;;;6089942;23;20689;-75
2022/11/06 09:28:31;;;;;;;8.60;7.50;;;11.60;99.90;;;;;;6092534;23;20445;-74
2022/11/06 09:30:58;;;;;;;8.13;7.32;;;11.60;99.90;;;;;;6091983;23;20192;-75
2022/11/06 09:33:25;;;;;;;8.03;7.33;;;11.60;99.90;;;;;;6092105;23;20225;-74
2022/11/06 09:35:52;;;;;;;7.90;7.23;;;11.60;99.90;;;;;;6090761;23;20414;-75
2022/11/06 09:38:21;;;;;;;7.67;7.07;;;11.90;99.90;;;;;;6091864;23;20446;-75
2022/11/06 09:40:51;;;;;;;7.47;6.87;;;12.30;99.90;;;;;;6091756;23;20488;-75
2022/11/06 09:43:26;;;;;;;8.20;7.40;;;12.40;99.90;;;;;;6092426;23;20530;-75
2022/11/06 09:45:55;;;;;;;7.70;7.00;;;12.50;99.90;;;;;;6091049;23;20454;-75
2022/11/06 09:48:30;;;;;;;7.13;6.53;;;12.60;99.90;;;;;;6090643;23;20417;-75
2022/11/06 09:51:04;;;;;;;7.33;6.73;;;12.80;99.90;;;;;;6092295;23;20511;-74
2022/11/06 09:53:39;;;;;;;8.70;7.40;;;12.90;99.90;;;;;;6092432;23;20466;-75
2022/11/06 09:56:10;;;;;;;7.93;7.30;;;12.80;99.90;;;;;;6091815;23;20901;-74
2022/11/06 09:58:41;;;;;;;7.77;7.17;;;12.70;99.90;;;;;;6092181;23;20461;-75
2022/11/06 10:01:16;;;;;;;8.40;7.63;;;12.60;99.90;;;;;;6091852;23;20424;-74
2022/11/06 10:03:47;;;;;;;8.00;7.30;;;12.70;99.90;;;;;;6090285;23;20435;-75
2022/11/06 10:06:15;;;;;;;7.37;6.73;;;12.70;99.90;;;;;;6091969;23;20513;-74
2022/11/06 10:08:45;;;;;;;7.83;7.03;;;12.70;99.90;;;;;;6092161;23;20421;-75
2022/11/06 10:11:30;;;;;;;8.30;7.60;;;12.80;99.90;;;;;;6090727;23;20429;-75
2022/11/06 10:14:09;;;;;;;7.80;7.07;;;12.90;99.90;;;;;;6091700;23;20429;-74
2022/11/06 10:16:45;;;;;;;7.63;6.93;;;13.20;99.90;;;;;;6090511;23;20429;-74
2022/11/06 10:19:24;;;;;;;6.90;6.30;;;13.10;99.90;;;;;;6091003;23;20784;-74
2022/11/06 10:21:59;;;;;;;7.27;6.57;;;13.20;99.90;;;;;;6092080;23;20464;-74
2022/11/06 10:24:37;;;;;;;7.50;6.80;;;13.20;99.90;;;;;;6092145;23;20413;-74
2022/11/06 10:27:14;;;;;;;9.07;7.43;;;13.30;99.90;;;;;;6092907;23;20480;-75
2022/11/06 10:29:58;;;;;;;7.30;6.70;;;12.90;99.90;;;;;;6090722;23;20486;-75
2022/11/06 10:32:41;;;;;;;7.13;6.53;;;12.50;99.90;;;;;;6092316;23;20443;-74
2022/11/06 10:35:15;;;;;;;8.00;7.30;;;12.30;99.90;;;;;;6091786;23;20766;-75
2022/11/06 10:37:50;;;;;;;7.20;6.53;;;12.20;99.90;;;;;;6089992;23;20498;-74
2022/11/06 10:40:23;;;;;;;7.73;7.00;;;12.40;99.90;;;;;;6091854;23;20422;-75
2022/11/06 10:43:01;;;;;;;7.20;6.40;;;12.60;99.90;;;;;;6091647;23;20761;-75
2022/11/06 10:45:29;;;;;;;8.20;7.50;;;12.40;99.90;;;;;;6091773;23;20442;-75
2022/11/06 10:48:05;;;;;;;7.50;6.80;;;12.20;99.90;;;;;;6066352;23;20485;-75
2022/11/06 10:50:42;;;;;;;6.70;6.10;;;12.00;99.90;;;;;;6091707;23;20947;-74
2022/11/06 10:53:19;;;;;;;6.90;6.30;;;11.90;99.90;;;;;;6092186;23;20497;-74
2022/11/06 10:56:18;;;;;;;6.50;6.00;;;11.80;99.90;;;;;;6068316;23;20906;-74
2022/11/06 10:58:46;;;;;;;7.15;6.55;;;11.30;99.90;;;;;;6091216;23;20192;-74
2022/11/06 11:01:15;;;;;;;7.82;7.13;;;11.20;99.90;;;;;;6093031;23;20220;-74
2022/11/06 11:03:44;;;;;;;7.20;6.55;;;11.20;99.90;;;;;;6091104;23;20652;-74
2022/11/06 11:06:12;;;;;;;7.07;6.38;;;11.00;99.90;;;;;;6091406;23;20239;-75
2022/11/06 11:08:41;;;;;;;6.63;6.10;;;11.00;99.90;;;;;;6093063;23;20192;-74
2022/11/06 11:11:24;;;;;;;6.43;5.93;;;10.80;99.90;;;;;;6092792;23;20561;-75
2022/11/06 11:14:14;;;;;;;6.85;6.25;;;10.90;99.90;;;;;;6093247;23;20270;-74
2022/11/06 11:16:44;;;;;;;6.68;6.07;;;11.10;99.90;;;;;;6093608;23;20184;-74
2022/11/06 11:19:24;;;;;;;6.57;5.97;;;11.30;99.90;;;;;;6093594;23;20193;-75
2022/11/06 11:21:56;;;;;;;7.35;6.65;;;11.40;99.90;;;;;;6093786;23;20193;-74
2022/11/06 11:24:24;;;;;;;7.00;6.30;;;11.60;99.90;;;;;;6093194;23;20188;-74
2022/11/06 11:26:54;;;;;;;7.80;7.10;;;11.80;99.90;;;;;;6093233;23;20259;-74
2022/11/06 11:29:26;;;;;;;7.07;6.38;;;11.90;99.90;;;;;;6093277;23;20226;-74
2022/11/06 11:31:57;;;;;;;6.10;5.60;;;11.70;99.90;;;;;;6093085;23;20326;-74
2022/11/06 11:34:27;;;;;;;7.07;6.43;;;11.80;99.90;;;;;;6092597;23;20242;-74
2022/11/06 11:39:46;;;;;;;6.10;5.60;;;11.90;99.90;;;;;;6091316;23;20935;-74
2022/11/06 11:42:24;;;;;;;6.00;5.40;;;12.00;99.90;;;;;;6092923;23;20529;-74
2022/11/06 11:45:26;;;;;;;6.87;6.27;;;11.90;99.90;;;;;;6092793;23;20189;-74
2022/11/06 11:48:12;;;;;;;6.37;5.77;;;12.20;99.90;;;;;;6092542;23;20492;-74
2022/11/06 11:50:40;;;;;;;5.73;5.33;;;12.50;99.90;;;;;;6090675;23;20466;-74
2022/11/06 11:53:18;;;;;;;5.40;5.00;;;12.80;99.90;;;;;;6092742;23;20431;-75
2022/11/06 11:55:48;;;;;;;5.70;5.20;;;13.00;99.90;;;;;;6092676;23;20425;-74
2022/11/06 11:58:20;;;;;;;5.57;5.17;;;13.40;99.90;;;;;;6092526;23;20471;-75
2022/11/06 12:00:54;;;;;;;6.23;5.70;;;14.00;99.90;;;;;;6092891;23;20587;-74
2022/11/06 12:03:25;;;;;;;5.93;5.43;;;14.40;99.90;;;;;;6092498;23;20430;-75
2022/11/06 12:05:53;;;;;;;6.37;5.77;;;14.60;99.90;;;;;;6090711;23;20438;-75
2022/11/06 12:08:24;;;;;;;6.30;5.80;;;14.30;99.90;;;;;;6091075;23;20462;-75
2022/11/06 12:10:51;;;;;;;5.50;5.10;;;14.00;99.90;;;;;;6092506;23;20414;-75
2022/11/06 12:13:21;;;;;;;5.47;4.97;;;14.10;99.90;;;;;;6092790;23;20442;-74
2022/11/06 12:15:54;;;;;;;5.30;4.80;;;13.90;99.90;;;;;;6092625;23;20422;-74
2022/11/06 12:18:26;;;;;;;5.60;5.20;;;14.00;99.90;;;;;;6092747;23;21138;-75
2022/11/06 12:20:57;;;;;;;5.33;4.83;;;14.10;99.90;;;;;;6067302;23;20442;-74
2022/11/06 12:23:29;;;;;;;4.80;4.40;;;14.10;99.90;;;;;;6092618;23;20818;-74
2022/11/06 12:26:05;;;;;;;5.13;4.73;;;14.20;99.90;;;;;;6092918;23;20449;-74
2022/11/06 12:28:35;;;;;;;5.03;4.63;;;14.30;99.90;;;;;;6092285;23;20537;-74
2022/11/06 12:31:11;;;;;;;3.83;3.53;;;14.20;99.90;;;;;;6091206;23;20433;-74
2022/11/06 12:33:39;;;;;;;3.93;3.63;;;14.20;99.90;;;;;;6092202;23;20434;-74
2022/11/06 12:36:10;;;;;;;4.30;3.97;;;13.70;99.90;;;;;;6092647;23;20817;-75
2022/11/06 12:38:44;;;;;;;3.47;3.17;;;13.60;99.90;;;;;;6092778;23;20483;-74
2022/11/06 12:41:16;;;;;;;3.60;3.30;;;13.80;99.90;;;;;;6092457;23;21090;-74
2022/11/06 12:43:46;;;;;;;3.13;2.93;;;13.80;99.90;;;;;;6067661;23;20497;-74
2022/11/06 12:46:39;;;;;;;4.10;3.80;;;13.70;99.90;;;;;;6090792;23;20420;-74
2022/11/06 12:49:29;;;;;;;3.23;3.03;;;13.10;99.90;;;;;;6092617;23;20862;-74
2022/11/06 12:52:09;;;;;;;3.67;2.93;;;12.70;99.90;;;;;;6092610;23;20414;-74
2022/11/06 12:54:52;;;;;;;3.10;2.90;;;12.50;99.90;;;;;;6090909;23;20915;-74
2022/11/06 12:57:29;;;;;;;3.10;2.90;;;12.20;99.90;;;;;;6090813;23;20184;-74
2022/11/06 13:00:05;;;;;;;3.58;3.28;;;12.10;99.90;;;;;;6090986;23;20261;-74
2022/11/06 13:02:52;;;;;;;3.63;3.33;;;12.00;99.90;;;;;;6092471;23;20188;-74
2022/11/06 13:05:25;;;;;;;3.00;2.80;;;11.90;99.90;;;;;;6091007;23;20271;-73
2022/11/06 13:08:05;;;;;;;3.10;2.90;;;11.60;99.90;;;;;;6092673;23;20234;-74
2022/11/06 13:10:47;;;;;;;3.40;3.10;;;11.60;99.90;;;;;;6092640;23;20192;-74
2022/11/06 13:13:30;;;;;;;2.78;2.58;;;11.40;99.90;;;;;;6092236;23;20196;-74